Terminal Aerodrome Forecast
Issued by NWS

Home | Current Version | Previous Version | Text Only | Print | Product List | Glossary On
Versions: 1 2 3 4 5 6 7 8 9 10 11 12 13 14 15 16 17 18 19 20 21 22 23 24 25 26 27 28 29 30 31 32 33 34 35 36 37 38 39 40 41
000
FTUS43 KMKX 301301 AAA
TAFUES
TAF AMD
KUES 301301Z 3013/0112 29006KT 5SM BR BKN007
      TEMPO 3013/3014 BKN005
     FM301500 33008KT P6SM BKN015
     FM301800 34009KT P6SM BKN035
     FM302200 01007KT P6SM SCT040
     FM010100 05006KT P6SM SCT250
     FM010400 00000KT P6SM SCT250=

USA.gov is the U.S. government's official web portal to all federal, state and local government web resources and services.